Vanceboro, North Carolina
Current Conditions -  °F | °C
As of 12:54 PM on Sunday 21 Dec 2014 (Local Time) from KEWN Reporting Station
Overcast Overcast  
Wind Chill: 44°   Ceiling: 6000
Heat Index: 48°   Visibility: 10mi
Dew Point: 35°   Wind: 8mph
Humidity: 61%   Direction: 30°NNE
Pressure: 30.27"   Gusts: NA
Location:  35.31°N, 77.15°W
Report Text: KEWN 211754Z 03007KT 10SM OVC060 09/02 A3027 RMK AO2 SLP251 T00890017 10089 20022 58022
Loading
Personal Weather Stations






























Interactive Weather Map New forecast layout! Learn more

10-Day Weather Forecast

Advertisements
Track Severe Weather on mobile